Time;durP1;ratioP1;P1;durP2;ratioP2;P2;SDS_P1;SDS_P2;PMS_P1;PMS_P2;Temp;Humidity;BMP_temperature;BMP_pressure;BME280_temperature;BME280_humidity;BME280_pressure;Samples;Min_cycle;Max_cycle;Signal;HPM_P1;HPM_P2
2021/11/16 00:01:11;;;;;;;36.77;22.23;;;9.30;99.90;;;;;;5068387;28;20161;-62
2021/11/16 00:03:36;;;;;;;43.03;23.37;;;9.30;99.90;;;;;;5068827;28;20199;-62
2021/11/16 00:06:02;;;;;;;44.80;24.17;;;9.30;99.90;;;;;;5068395;28;20173;-63
2021/11/16 00:08:28;;;;;;;37.03;20.87;;;9.30;99.90;;;;;;5068571;28;20176;-63
2021/11/16 00:10:54;;;;;;;41.93;23.10;;;9.20;99.90;;;;;;5068992;28;20251;-62
2021/11/16 00:13:19;;;;;;;44.50;23.67;;;9.20;99.90;;;;;;5066124;28;20220;-62
2021/11/16 00:15:46;;;;;;;42.13;22.57;;;9.20;99.90;;;;;;5068783;28;20514;-63
2021/11/16 00:18:13;;;;;;;40.07;21.13;;;9.20;99.90;;;;;;5068415;28;20228;-62
2021/11/16 00:20:43;;;;;;;46.50;22.93;;;9.20;99.90;;;;;;5068316;28;20177;-62
2021/11/16 00:23:16;;;;;;;42.43;23.30;;;9.20;99.90;;;;;;5068552;28;20192;-62
2021/11/16 00:25:43;;;;;;;49.97;22.60;;;9.20;99.90;;;;;;5068491;28;20646;-62
2021/11/16 00:28:09;;;;;;;42.80;22.40;;;9.20;99.90;;;;;;5068360;28;20175;-62
2021/11/16 00:30:34;;;;;;;40.03;22.20;;;9.20;99.90;;;;;;5068574;28;20156;-62
2021/11/16 00:33:00;;;;;;;42.77;21.63;;;9.20;99.90;;;;;;5068305;28;20188;-62
2021/11/16 00:35:26;;;;;;;44.43;22.80;;;9.30;99.90;;;;;;5067909;28;20243;-64
2021/11/16 00:37:52;;;;;;;46.47;24.17;;;9.40;99.90;;;;;;5067048;28;20172;-63
2021/11/16 00:40:19;;;;;;;46.23;24.53;;;9.40;99.90;;;;;;5068297;28;20165;-62
2021/11/16 00:42:47;;;;;;;45.13;24.03;;;9.40;99.90;;;;;;5068240;28;20185;-62
2021/11/16 00:45:13;;;;;;;44.30;23.27;;;9.50;99.90;;;;;;5068123;28;20157;-63
2021/11/16 00:47:40;;;;;;;38.83;21.90;;;9.50;99.90;;;;;;5067933;28;20157;-62
2021/11/16 00:50:07;;;;;;;49.37;25.13;;;9.50;99.90;;;;;;5066243;28;20168;-62
2021/11/16 00:52:33;;;;;;;49.50;24.87;;;9.40;99.90;;;;;;5068078;28;20228;-62
2021/11/16 00:54:59;;;;;;;45.17;24.20;;;9.40;99.90;;;;;;5067897;28;20161;-62
2021/11/16 00:57:24;;;;;;;44.27;23.67;;;9.30;99.90;;;;;;5067647;28;20167;-62
2021/11/16 00:59:51;;;;;;;42.63;23.77;;;9.30;99.90;;;;;;5067789;28;20169;-62
2021/11/16 01:02:17;;;;;;;47.87;24.77;;;9.30;99.90;;;;;;5067663;28;20152;-62
2021/11/16 01:04:51;;;;;;;52.07;24.13;;;9.30;99.90;;;;;;5066996;28;20192;-62
2021/11/16 01:07:18;;;;;;;43.30;22.80;;;9.30;99.90;;;;;;5067583;28;20192;-62
2021/11/16 01:09:45;;;;;;;44.67;23.43;;;9.30;99.90;;;;;;5067526;28;20169;-62
2021/11/16 01:12:12;;;;;;;48.13;24.27;;;9.30;99.90;;;;;;5067655;28;20180;-64
2021/11/16 01:14:38;;;;;;;44.33;22.53;;;9.20;99.90;;;;;;5067457;28;20213;-62
2021/11/16 01:17:04;;;;;;;42.30;23.47;;;9.00;99.90;;;;;;5067487;28;20165;-62
2021/11/16 01:19:30;;;;;;;44.70;23.40;;;9.00;99.90;;;;;;5066088;28;20173;-62
2021/11/16 01:21:56;;;;;;;46.80;23.67;;;9.10;99.90;;;;;;5065975;28;20173;-62
2021/11/16 01:24:22;;;;;;;46.90;24.80;;;9.20;99.90;;;;;;5067032;28;20590;-62
2021/11/16 01:26:49;;;;;;;46.10;23.93;;;9.00;99.90;;;;;;5066156;28;20560;-62
2021/11/16 01:29:15;;;;;;;45.40;23.20;;;8.90;99.90;;;;;;5067037;28;20164;-62
2021/11/16 01:31:41;;;;;;;46.33;23.37;;;9.00;99.90;;;;;;5067381;28;20218;-62
2021/11/16 01:34:08;;;;;;;45.73;24.53;;;8.90;99.90;;;;;;5065866;28;20707;-62
2021/11/16 01:36:34;;;;;;;44.13;23.50;;;8.50;99.90;;;;;;5066929;28;20232;-62
2021/11/16 01:39:01;;;;;;;47.80;24.03;;;8.50;99.90;;;;;;5066932;28;20176;-62
2021/11/16 01:41:29;;;;;;;47.30;23.73;;;8.40;99.90;;;;;;5067262;28;20167;-62
2021/11/16 01:43:55;;;;;;;44.37;23.73;;;8.30;99.90;;;;;;5066932;28;20266;-62
2021/11/16 01:46:21;;;;;;;43.30;23.30;;;8.30;99.90;;;;;;5066811;28;20223;-62
2021/11/16 01:48:52;;;;;;;44.63;25.33;;;8.30;99.90;;;;;;5066684;28;20161;-62
2021/11/16 01:51:21;;;;;;;46.33;24.73;;;8.40;99.90;;;;;;5065260;28;20200;-63
2021/11/16 01:53:50;;;;;;;46.83;25.73;;;8.60;99.90;;;;;;5066849;28;20211;-62
2021/11/16 01:56:15;;;;;;;50.20;25.87;;;8.70;99.90;;;;;;5067008;28;20172;-62
2021/11/16 01:58:41;;;;;;;43.43;24.37;;;8.40;99.90;;;;;;5065382;28;20176;-62
2021/11/16 02:01:07;;;;;;;50.20;25.97;;;8.30;99.90;;;;;;5066826;28;20219;-62
2021/11/16 02:03:33;;;;;;;50.33;24.97;;;8.30;99.90;;;;;;5066620;28;20251;-62
2021/11/16 02:06:36;;;;;;;53.70;23.87;;;8.50;99.90;;;;;;5066324;28;20173;-62
2021/11/16 02:09:05;;;;;;;52.67;26.03;;;8.70;99.90;;;;;;5024248;28;20178;-63
2021/11/16 02:11:31;;;;;;;54.33;28.42;;;8.60;99.90;;;;;;5024205;28;20450;-62
2021/11/16 02:13:57;;;;;;;51.27;24.53;;;8.60;99.90;;;;;;5024374;28;20216;-62
2021/11/16 02:16:23;;;;;;;44.93;23.87;;;8.60;99.90;;;;;;5024587;28;20229;-62
2021/11/16 02:18:49;;;;;;;47.47;24.53;;;8.70;99.90;;;;;;5024300;28;20217;-62
2021/11/16 02:21:15;;;;;;;52.77;25.40;;;8.70;99.90;;;;;;5024026;28;20166;-62
2021/11/16 02:23:43;;;;;;;53.33;25.00;;;8.80;99.90;;;;;;5024448;28;20272;-62
2021/11/16 02:26:09;;;;;;;54.33;25.27;;;8.80;99.90;;;;;;5007916;28;20559;-62
2021/11/16 02:28:35;;;;;;;57.37;25.77;;;8.90;99.90;;;;;;5024487;28;20182;-62
2021/11/16 02:31:01;;;;;;;47.17;24.63;;;8.90;99.90;;;;;;5007799;28;20177;-62
2021/11/16 02:33:27;;;;;;;45.90;23.07;;;8.80;99.90;;;;;;5024330;28;20550;-62
2021/11/16 02:35:53;;;;;;;50.83;25.30;;;8.70;99.90;;;;;;5023394;28;20182;-62
2021/11/16 02:38:19;;;;;;;49.13;25.10;;;8.80;99.90;;;;;;5024224;28;20182;-62
2021/11/16 02:40:45;;;;;;;48.57;25.63;;;8.90;99.90;;;;;;5007726;28;20174;-62
2021/11/16 02:43:11;;;;;;;52.53;24.70;;;9.00;99.90;;;;;;5049440;28;20196;-62
2021/11/16 02:45:37;;;;;;;46.43;24.73;;;8.90;99.90;;;;;;5066176;28;20191;-62
2021/11/16 02:48:12;;;;;;;52.93;26.50;;;8.80;99.90;;;;;;5066016;28;20175;-62
2021/11/16 02:50:42;;;;;;;49.17;24.47;;;8.90;99.90;;;;;;5065674;28;20168;-62
2021/11/16 02:53:08;;;;;;;54.27;25.20;;;9.00;99.90;;;;;;5064867;28;20279;-62
2021/11/16 02:55:34;;;;;;;59.27;27.07;;;9.00;99.90;;;;;;5066001;28;20160;-62
2021/11/16 02:58:00;;;;;;;51.63;25.10;;;9.00;99.90;;;;;;5065868;28;20539;-62
2021/11/16 03:00:26;;;;;;;49.27;25.17;;;9.00;99.90;;;;;;5066007;28;20231;-62
2021/11/16 03:02:52;;;;;;;53.90;25.77;;;8.90;99.90;;;;;;5066181;28;20192;-62
2021/11/16 03:05:17;;;;;;;52.37;25.47;;;8.90;99.90;;;;;;5065634;28;20175;-62
2021/11/16 03:07:54;;;;;;;50.23;24.93;;;8.80;99.90;;;;;;5065962;28;20641;-62
2021/11/16 03:10:25;;;;;;;49.47;25.73;;;8.90;99.90;;;;;;5064598;28;20228;-62
2021/11/16 03:12:51;;;;;;;54.07;26.60;;;9.00;99.90;;;;;;5065981;28;20154;-62
2021/11/16 03:15:17;;;;;;;55.20;25.30;;;9.00;99.90;;;;;;5065865;28;20227;-62
2021/11/16 03:17:43;;;;;;;53.07;25.57;;;9.10;99.90;;;;;;5065838;28;20244;-62
2021/11/16 03:20:11;;;;;;;54.93;26.33;;;9.10;99.90;;;;;;5065179;28;20196;-62
2021/11/16 03:22:51;;;;;;;55.73;26.90;;;9.20;99.90;;;;;;5065791;28;20149;-62
2021/11/16 03:25:19;;;;;;;55.87;26.00;;;9.10;99.90;;;;;;5065679;28;20880;-62
2021/11/16 03:27:50;;;;;;;53.50;24.63;;;9.10;99.90;;;;;;5065805;28;20218;-62
2021/11/16 03:30:16;;;;;;;63.43;27.40;;;9.10;99.90;;;;;;5065640;28;20161;-63
2021/11/16 03:32:44;;;;;;;59.40;27.73;;;9.10;99.90;;;;;;5064430;28;20554;-62
2021/11/16 03:35:10;;;;;;;54.37;26.83;;;8.80;99.90;;;;;;5065321;28;20232;-62
2021/11/16 03:37:42;;;;;;;54.33;26.83;;;8.60;99.90;;;;;;5064389;28;20168;-62
2021/11/16 03:40:09;;;;;;;63.63;28.60;;;8.70;99.90;;;;;;5064140;28;20169;-62
2021/11/16 03:42:40;;;;;;;49.60;25.67;;;8.70;99.90;;;;;;5065544;28;20702;-62
2021/11/16 03:45:07;;;;;;;52.23;26.50;;;8.80;99.90;;;;;;5065573;28;20173;-62
2021/11/16 03:47:32;;;;;;;54.87;28.23;;;8.70;99.90;;;;;;5066509;28;20161;-62
2021/11/16 03:49:58;;;;;;;54.00;26.47;;;8.80;99.90;;;;;;5068631;28;20541;-62
2021/11/16 03:52:25;;;;;;;56.67;26.60;;;8.80;99.90;;;;;;5069119;28;20172;-62
2021/11/16 03:54:52;;;;;;;57.07;27.67;;;8.80;99.90;;;;;;5067923;28;20160;-62
2021/11/16 03:57:19;;;;;;;56.07;26.57;;;8.80;99.90;;;;;;5069154;28;20172;-62
2021/11/16 03:59:44;;;;;;;64.20;26.90;;;8.70;99.90;;;;;;5068985;28;20176;-62
2021/11/16 04:02:11;;;;;;;57.03;26.60;;;8.50;99.90;;;;;;5069105;28;20252;-62
2021/11/16 04:04:37;;;;;;;55.80;26.70;;;8.50;99.90;;;;;;5068881;28;20195;-62
2021/11/16 04:07:03;;;;;;;52.33;26.53;;;8.40;99.90;;;;;;5068580;28;20186;-62
2021/11/16 04:09:29;;;;;;;50.30;25.93;;;8.60;99.90;;;;;;5068594;28;20168;-62
2021/11/16 04:11:54;;;;;;;52.43;27.03;;;8.40;99.90;;;;;;5067564;28;20172;-62
2021/11/16 04:14:20;;;;;;;56.03;27.80;;;8.40;99.90;;;;;;5068499;28;20223;-62
2021/11/16 04:16:46;;;;;;;55.50;25.13;;;8.60;99.90;;;;;;5069106;28;20165;-62
2021/11/16 04:19:13;;;;;;;61.87;27.70;;;8.70;99.90;;;;;;5068503;28;20177;-62
2021/11/16 04:21:38;;;;;;;56.43;25.90;;;8.80;99.90;;;;;;5068188;28;20544;-62
2021/11/16 04:24:04;;;;;;;59.67;26.57;;;8.80;99.90;;;;;;5068678;28;20188;-62
2021/11/16 04:26:30;;;;;;;64.20;28.90;;;8.90;99.90;;;;;;5068499;28;20527;-62
2021/11/16 04:28:55;;;;;;;54.73;26.87;;;8.90;99.90;;;;;;5068149;28;20187;-62
2021/11/16 04:31:21;;;;;;;64.07;31.60;;;8.90;99.90;;;;;;5067997;28;20415;-62
2021/11/16 04:33:46;;;;;;;60.20;29.17;;;8.90;99.90;;;;;;5068233;28;20169;-62
2021/11/16 04:36:16;;;;;;;58.20;27.77;;;8.90;99.90;;;;;;5068124;28;20183;-62
2021/11/16 04:38:41;;;;;;;60.13;27.53;;;8.90;99.90;;;;;;5068231;28;20169;-62
2021/11/16 04:41:07;;;;;;;62.30;31.33;;;8.90;99.90;;;;;;5067728;28;20483;-62
2021/11/16 04:43:33;;;;;;;59.40;27.47;;;9.10;99.90;;;;;;5068307;28;20184;-62
2021/11/16 04:46:05;;;;;;;58.50;28.03;;;9.10;99.90;;;;;;5068201;28;20165;-62
2021/11/16 05:02:47;;;;;;;56.83;28.20;;;9.00;99.90;;;;;;5005971;28;20198;-62
2021/11/16 05:05:17;;;;;;;55.93;28.23;;;8.90;99.90;;;;;;5005417;28;20167;-62
2021/11/16 05:07:50;;;;;;;61.93;29.33;;;8.90;99.90;;;;;;5006166;28;20656;-62
2021/11/16 05:10:16;;;;;;;67.13;30.17;;;9.00;99.90;;;;;;5005945;28;20664;-62
2021/11/16 05:12:42;;;;;;;59.23;29.67;;;8.90;99.90;;;;;;5005537;28;20175;-62
2021/11/16 05:15:13;;;;;;;60.53;28.83;;;8.90;99.90;;;;;;5005563;28;20241;-62
2021/11/16 05:17:38;;;;;;;57.77;29.13;;;8.90;99.90;;;;;;5005851;28;20166;-62
2021/11/16 05:20:06;;;;;;;61.80;29.40;;;8.90;99.90;;;;;;5005092;28;20183;-62
2021/11/16 05:22:32;;;;;;;58.73;29.23;;;8.90;99.90;;;;;;5005523;28;20197;-62
2021/11/16 05:24:58;;;;;;;62.10;29.73;;;9.00;99.90;;;;;;5005642;28;20202;-63
2021/11/16 05:27:24;;;;;;;65.77;28.90;;;9.00;99.90;;;;;;5005157;28;20607;-62
2021/11/16 05:29:49;;;;;;;60.13;29.57;;;9.00;99.90;;;;;;5005241;28;20227;-62
2021/11/16 05:32:16;;;;;;;57.97;28.07;;;9.00;99.90;;;;;;4997833;28;20203;-62
2021/11/16 05:34:42;;;;;;;57.60;29.00;;;9.00;99.90;;;;;;5065804;28;20177;-62
2021/11/16 05:37:08;;;;;;;65.20;29.83;;;9.00;99.90;;;;;;5066614;28;20203;-63
2021/11/16 05:39:34;;;;;;;63.20;30.20;;;9.00;99.90;;;;;;5066575;28;20161;-62
2021/11/16 05:42:00;;;;;;;64.70;32.13;;;9.00;99.90;;;;;;5066904;28;20165;-62
2021/11/16 05:44:26;;;;;;;74.67;33.57;;;8.90;99.90;;;;;;5066669;28;20278;-62
2021/11/16 05:46:51;;;;;;;64.57;30.63;;;9.00;99.90;;;;;;5067248;28;20157;-62
2021/11/16 05:49:17;;;;;;;64.87;30.67;;;9.00;99.90;;;;;;5066482;28;20173;-62
2021/11/16 05:51:42;;;;;;;73.27;31.80;;;9.00;99.90;;;;;;5066301;28;20172;-62
2021/11/16 05:54:16;;;;;;;70.03;33.80;;;9.00;99.90;;;;;;5066758;28;20160;-62
2021/11/16 05:56:42;;;;;;;70.87;33.23;;;9.00;99.90;;;;;;5066689;28;20228;-62
2021/11/16 05:59:07;;;;;;;66.37;31.27;;;9.00;99.90;;;;;;5066153;28;20172;-62
2021/11/16 06:01:34;;;;;;;73.03;32.77;;;9.10;99.90;;;;;;5066441;28;20160;-62
2021/11/16 06:04:00;;;;;;;74.10;33.23;;;9.20;99.90;;;;;;5066450;28;20184;-62
2021/11/16 06:06:31;;;;;;;77.23;32.93;;;9.30;99.90;;;;;;5065757;28;20176;-62
2021/11/16 06:08:59;;;;;;;75.53;33.13;;;9.30;99.90;;;;;;5065995;28;20244;-62
2021/11/16 06:11:26;;;;;;;78.53;34.43;;;9.30;99.90;;;;;;5065288;28;20192;-62
2021/11/16 06:13:53;;;;;;;79.70;35.20;;;9.20;99.90;;;;;;5065805;28;20231;-63
2021/11/16 06:16:19;;;;;;;77.20;35.57;;;9.20;99.90;;;;;;5066209;28;20160;-62
2021/11/16 06:18:56;;;;;;;78.83;35.07;;;9.10;99.90;;;;;;5066038;28;20183;-62
2021/11/16 06:21:23;;;;;;;73.37;34.87;;;9.10;99.90;;;;;;5065576;28;20168;-62
2021/11/16 06:23:49;;;;;;;77.97;35.30;;;9.00;99.90;;;;;;5065979;28;20528;-62
2021/11/16 06:26:15;;;;;;;77.57;34.57;;;9.00;99.90;;;;;;5065957;28;20157;-62
2021/11/16 06:28:41;;;;;;;86.33;36.37;;;9.10;99.90;;;;;;5066021;28;20160;-62
2021/11/16 06:31:09;;;;;;;77.50;35.43;;;9.20;99.90;;;;;;5065747;28;20172;-62
2021/11/16 06:33:35;;;;;;;79.95;38.92;;;9.10;99.90;;;;;;5065606;28;20407;-62
2021/11/16 06:36:00;;;;;;;76.97;35.00;;;9.20;99.90;;;;;;5065747;28;20173;-62
2021/11/16 06:38:26;;;;;;;77.50;35.00;;;9.20;99.90;;;;;;5065996;28;20223;-62
2021/11/16 06:40:52;;;;;;;80.67;35.53;;;9.20;99.90;;;;;;5065935;28;20176;-62
2021/11/16 06:43:28;;;;;;;79.83;36.73;;;9.10;99.90;;;;;;5065607;28;20435;-62
2021/11/16 06:45:58;;;;;;;71.17;32.93;;;9.10;99.90;;;;;;5065991;28;20173;-62
2021/11/16 06:48:24;;;;;;;78.87;36.00;;;9.10;99.90;;;;;;5065829;28;20164;-62
2021/11/16 06:50:52;;;;;;;81.13;36.33;;;9.10;99.90;;;;;;5065612;28;20171;-62
2021/11/16 06:53:35;;;;;;;78.73;35.87;;;9.00;99.90;;;;;;5066044;28;20168;-62
2021/11/16 06:56:04;;;;;;;71.43;35.47;;;9.00;99.90;;;;;;5065858;28;20251;-62
2021/11/16 06:58:31;;;;;;;75.33;35.43;;;9.00;99.90;;;;;;5064511;28;20180;-62
2021/11/16 07:00:56;;;;;;;74.20;35.20;;;9.00;99.90;;;;;;5065656;28;20256;-62
2021/11/16 07:03:24;;;;;;;74.00;34.20;;;9.10;99.90;;;;;;5065992;28;20196;-62
2021/11/16 07:05:56;;;;;;;78.90;35.60;;;8.90;99.90;;;;;;5065375;28;20173;-62
2021/11/16 07:08:33;;;;;;;74.30;34.93;;;8.90;99.90;;;;;;5064357;28;20172;-62
2021/11/16 07:11:30;;;;;;;89.73;36.00;;;9.00;99.90;;;;;;5065668;28;20168;-62
2021/11/16 07:14:05;;;;;;;80.97;35.27;;;9.00;99.90;;;;;;5063248;28;20295;-62
2021/11/16 07:16:34;;;;;;;71.00;33.83;;;9.00;99.90;;;;;;5065701;28;20688;-62
2021/11/16 07:19:02;;;;;;;75.10;34.77;;;9.00;99.90;;;;;;5065312;28;20177;-62
2021/11/16 07:21:42;;;;;;;72.10;33.97;;;8.90;99.90;;;;;;5065251;28;20172;-62
2021/11/16 07:24:16;;;;;;;74.07;34.27;;;9.00;99.90;;;;;;5069171;28;20180;-62
2021/11/16 07:26:42;;;;;;;77.37;36.33;;;9.10;99.90;;;;;;5069611;28;20169;-62
2021/11/16 07:29:16;;;;;;;76.47;35.17;;;9.10;99.90;;;;;;5068927;28;20207;-62
2021/11/16 07:31:43;;;;;;;77.00;34.03;;;9.10;99.90;;;;;;5067962;28;20160;-62
2021/11/16 07:34:17;;;;;;;76.93;34.40;;;9.10;99.90;;;;;;5069264;28;20171;-62
2021/11/16 07:37:02;;;;;;;82.37;35.90;;;9.10;99.90;;;;;;5068886;28;20192;-62
2021/11/16 07:39:29;;;;;;;74.83;35.37;;;9.10;99.90;;;;;;5068792;28;20176;-62
2021/11/16 07:42:06;;;;;;;75.23;34.27;;;9.10;99.90;;;;;;5069260;28;20164;-62
2021/11/16 07:44:33;;;;;;;75.40;33.47;;;9.00;99.90;;;;;;5069124;28;20203;-62
2021/11/16 07:46:59;;;;;;;76.73;34.80;;;9.00;99.90;;;;;;5069339;28;20169;-62
2021/11/16 07:49:25;;;;;;;76.43;34.83;;;8.90;99.90;;;;;;5067340;28;20187;-62
2021/11/16 07:51:53;;;;;;;76.00;35.53;;;9.00;99.90;;;;;;5068201;28;20169;-62
2021/11/16 07:54:28;;;;;;;77.63;35.10;;;9.00;99.90;;;;;;5067531;28;20207;-62
2021/11/16 07:57:04;;;;;;;79.00;34.60;;;9.10;99.90;;;;;;5068800;28;20168;-62
2021/11/16 07:59:30;;;;;;;89.70;38.43;;;9.10;99.90;;;;;;5067317;28;20183;-62
2021/11/16 08:02:07;;;;;;;76.67;35.73;;;9.00;99.90;;;;;;5068828;28;20188;-62
2021/11/16 08:04:48;;;;;;;242.83;78.03;;;9.10;99.90;;;;;;5067419;28;20197;-62
2021/11/16 08:07:43;;;;;;;183.23;66.23;;;9.10;99.90;;;;;;5068416;28;20180;-62
2021/11/16 08:10:15;;;;;;;80.33;36.17;;;9.10;99.90;;;;;;5068513;28;20168;-62
2021/11/16 08:12:43;;;;;;;87.43;37.33;;;9.10;99.90;;;;;;5068692;28;20176;-62
2021/11/16 08:15:12;;;;;;;78.43;35.17;;;9.10;99.90;;;;;;5068500;28;20239;-62
2021/11/16 08:17:40;;;;;;;87.03;41.77;;;9.10;99.90;;;;;;5068815;28;20172;-62
2021/11/16 08:20:09;;;;;;;73.53;34.50;;;8.90;99.90;;;;;;5068100;28;20180;-62
2021/11/16 08:22:35;;;;;;;79.90;34.60;;;8.90;99.90;;;;;;5068436;28;20649;-62
2021/11/16 08:25:02;;;;;;;70.60;34.20;;;9.00;99.90;;;;;;5068409;28;20196;-62
2021/11/16 08:27:35;;;;;;;86.33;40.10;;;8.90;99.90;;;;;;5067191;28;20232;-62
2021/11/16 08:30:08;;;;;;;83.33;42.90;;;8.90;99.90;;;;;;5068243;28;20218;-62
2021/11/16 08:32:36;;;;;;;82.37;36.47;;;8.90;99.90;;;;;;5068539;28;20192;-62
2021/11/16 08:35:08;;;;;;;76.37;34.23;;;8.90;99.90;;;;;;5067246;28;20165;-62
2021/11/16 08:37:38;;;;;;;78.33;35.83;;;8.80;99.90;;;;;;5068327;28;20149;-62
2021/11/16 08:40:17;;;;;;;79.83;34.90;;;8.80;99.90;;;;;;5067873;28;20176;-62
2021/11/16 08:42:52;;;;;;;74.30;33.83;;;8.80;99.90;;;;;;5067998;28;20180;-63
2021/11/16 08:45:23;;;;;;;94.17;44.93;;;8.90;99.90;;;;;;5068001;28;20156;-62
2021/11/16 08:47:54;;;;;;;83.27;38.13;;;9.00;99.90;;;;;;5068194;28;20155;-62
2021/11/16 08:50:32;;;;;;;81.77;37.33;;;9.20;99.90;;;;;;5067377;28;20195;-62
2021/11/16 08:53:02;;;;;;;74.37;36.13;;;9.30;99.90;;;;;;5068041;28;20227;-62
2021/11/16 08:55:31;;;;;;;84.63;35.50;;;9.20;99.90;;;;;;5067779;28;20168;-62
2021/11/16 08:57:59;;;;;;;71.90;31.00;;;9.00;99.90;;;;;;5067568;28;20196;-62
2021/11/16 09:00:40;;;;;;;66.80;30.43;;;9.20;99.90;;;;;;5066407;28;20183;-62
2021/11/16 09:03:11;;;;;;;61.67;29.67;;;9.40;99.90;;;;;;5067972;28;20267;-61
2021/11/16 09:05:41;;;;;;;71.17;32.17;;;9.20;99.90;;;;;;5067256;28;20157;-62
2021/11/16 09:08:15;;;;;;;66.07;32.23;;;9.20;99.90;;;;;;5067794;28;20199;-62
2021/11/16 09:10:44;;;;;;;68.83;31.50;;;9.20;99.90;;;;;;5067558;28;20177;-62
2021/11/16 09:13:12;;;;;;;67.67;31.57;;;9.30;99.90;;;;;;5067498;28;20161;-62
2021/11/16 09:15:53;;;;;;;74.43;32.70;;;9.20;99.90;;;;;;5067596;28;20247;-62
2021/11/16 09:18:29;;;;;;;68.50;32.73;;;9.20;99.90;;;;;;5067466;28;20164;-62
2021/11/16 09:20:58;;;;;;;71.80;36.67;;;9.20;99.90;;;;;;5066064;28;20411;-64
2021/11/16 09:23:35;;;;;;;77.77;34.33;;;9.30;99.90;;;;;;5067294;28;20188;-62
2021/11/16 09:26:15;;;;;;;69.47;31.93;;;9.20;99.90;;;;;;5067405;28;20163;-62
2021/11/16 09:28:50;;;;;;;53.17;25.87;;;9.30;99.90;;;;;;5067206;28;20148;-63
2021/11/16 09:31:22;;;;;;;49.40;28.60;;;9.10;99.90;;;;;;5066033;28;20408;-62
2021/11/16 09:33:50;;;;;;;64.70;28.87;;;9.40;99.90;;;;;;5067268;28;20521;-62
2021/11/16 09:36:25;;;;;;;59.60;27.90;;;9.30;99.90;;;;;;5066632;28;20236;-62
2021/11/16 09:38:55;;;;;;;49.93;26.27;;;9.30;99.90;;;;;;5066973;28;20165;-62
2021/11/16 09:41:37;;;;;;;45.83;24.20;;;9.20;99.90;;;;;;5066956;28;20169;-62
2021/11/16 09:44:13;;;;;;;50.57;26.33;;;9.00;99.90;;;;;;5066941;28;20192;-62
2021/11/16 09:46:49;;;;;;;56.90;29.80;;;9.00;99.90;;;;;;5066828;28;20172;-62
2021/11/16 09:49:17;;;;;;;60.07;28.83;;;9.00;99.90;;;;;;5066306;28;20172;-62
2021/11/16 09:52:13;;;;;;;48.27;24.30;;;9.00;99.90;;;;;;5066302;28;20190;-62
2021/11/16 09:54:55;;;;;;;49.90;24.03;;;9.10;99.90;;;;;;5066305;28;20192;-62
2021/11/16 09:57:25;;;;;;;49.87;25.27;;;9.30;99.90;;;;;;5066864;28;20188;-62
2021/11/16 09:59:59;;;;;;;56.30;27.83;;;9.30;99.90;;;;;;5066563;28;20169;-62
2021/11/16 10:02:28;;;;;;;55.43;27.50;;;9.40;99.90;;;;;;5066056;28;20159;-62
2021/11/16 10:05:01;;;;;;;59.47;30.73;;;9.40;99.90;;;;;;5066596;28;20192;-62
2021/11/16 10:07:27;;;;;;;59.37;28.67;;;9.40;99.90;;;;;;5066281;28;20230;-62
2021/11/16 10:09:53;;;;;;;61.23;29.10;;;9.30;99.90;;;;;;5066178;28;20172;-62
2021/11/16 10:12:23;;;;;;;56.87;25.83;;;9.40;99.90;;;;;;5065161;28;20184;-62
2021/11/16 10:14:50;;;;;;;53.03;27.17;;;9.40;99.90;;;;;;5065074;28;20219;-63
2021/11/16 10:17:16;;;;;;;85.40;41.57;;;9.40;99.90;;;;;;5066442;28;20169;-62
2021/11/16 10:19:42;;;;;;;71.53;34.43;;;9.50;99.90;;;;;;5066181;28;20236;-62
2021/11/16 10:22:11;;;;;;;67.37;30.40;;;9.60;99.90;;;;;;5065919;28;20229;-62
2021/11/16 10:24:38;;;;;;;64.77;27.70;;;9.60;99.90;;;;;;5064904;28;20196;-62
2021/11/16 10:27:26;;;;;;;61.30;28.73;;;9.70;99.90;;;;;;5066239;28;20240;-63
2021/11/16 10:30:06;;;;;;;58.90;28.07;;;9.70;99.90;;;;;;5065941;28;20188;-62
2021/11/16 10:32:32;;;;;;;68.93;28.97;;;9.80;99.90;;;;;;5066189;28;20152;-62
2021/11/16 10:35:17;;;;;;;58.50;28.50;;;10.00;99.90;;;;;;5066354;28;20171;-62
2021/11/16 10:38:04;;;;;;;59.03;28.10;;;10.20;99.90;;;;;;5064596;28;20177;-62
2021/11/16 10:40:31;;;;;;;63.93;30.33;;;10.50;99.90;;;;;;5065921;28;20656;-62
2021/11/16 10:42:59;;;;;;;65.70;29.17;;;10.40;99.90;;;;;;5066200;28;20171;-62
2021/11/16 10:45:28;;;;;;;56.07;28.03;;;10.50;99.90;;;;;;5064605;28;20173;-62
2021/11/16 10:48:04;;;;;;;56.63;29.10;;;9.90;99.90;;;;;;5066213;28;20529;-62
2021/11/16 10:50:32;;;;;;;57.60;27.17;;;9.60;99.90;;;;;;5065426;28;20169;-62
2021/11/16 10:53:11;;;;;;;61.73;29.60;;;9.40;99.90;;;;;;5065970;28;20203;-62
2021/11/16 10:55:46;;;;;;;60.63;28.37;;;9.30;99.90;;;;;;5065951;28;20160;-62
2021/11/16 10:58:14;;;;;;;58.67;28.87;;;9.20;99.90;;;;;;5068376;28;20153;-62
2021/11/16 11:00:46;;;;;;;57.10;28.23;;;9.20;99.90;;;;;;5069845;28;20168;-63
2021/11/16 11:03:28;;;;;;;67.33;31.30;;;9.10;99.90;;;;;;5069942;28;20263;-62
2021/11/16 11:06:24;;;;;;;60.70;28.20;;;9.00;99.90;;;;;;5069577;28;20168;-63
2021/11/16 11:08:52;;;;;;;63.20;28.97;;;9.00;99.90;;;;;;5069772;28;20154;-62
2021/11/16 11:11:23;;;;;;;66.33;29.20;;;9.10;99.90;;;;;;5068617;28;20192;-62
2021/11/16 11:13:56;;;;;;;72.50;34.47;;;9.10;99.90;;;;;;5068261;28;20228;-62
2021/11/16 11:16:22;;;;;;;69.80;30.50;;;9.10;99.90;;;;;;5069881;28;20228;-62
2021/11/16 11:18:49;;;;;;;67.23;31.83;;;9.20;99.90;;;;;;5068265;28;20168;-62
2021/11/16 11:21:38;;;;;;;62.85;31.42;;;9.20;99.90;;;;;;5068905;28;20450;-62
2021/11/16 11:24:12;;;;;;;61.03;29.23;;;9.30;99.90;;;;;;5069775;28;20184;-62
2021/11/16 11:27:10;;;;;;;67.20;30.80;;;9.30;99.90;;;;;;5068251;28;20174;-63
2021/11/16 11:29:42;;;;;;;66.07;29.97;;;9.40;99.90;;;;;;5068860;28;20672;-62
2021/11/16 11:32:23;;;;;;;66.50;31.10;;;9.40;99.90;;;;;;5068299;28;20602;-63
2021/11/16 11:35:00;;;;;;;66.23;30.60;;;9.40;99.90;;;;;;5069468;28;20232;-62
2021/11/16 11:37:32;;;;;;;71.53;30.43;;;9.10;99.90;;;;;;5069089;28;20172;-62
2021/11/16 11:40:02;;;;;;;68.63;28.17;;;9.10;99.90;;;;;;5069330;28;20177;-62
2021/11/16 11:42:56;;;;;;;59.53;29.77;;;9.10;99.90;;;;;;5069423;28;20202;-62
2021/11/16 11:45:29;;;;;;;63.60;29.33;;;9.00;99.90;;;;;;5065756;28;20177;-62
2021/11/16 11:48:08;;;;;;;71.43;30.80;;;8.80;99.90;;;;;;5069501;28;20164;-62
2021/11/16 11:50:43;;;;;;;66.27;31.20;;;8.90;99.90;;;;;;5068674;28;20165;-62
2021/11/16 11:53:10;;;;;;;68.70;32.10;;;8.80;99.90;;;;;;5069286;28;20645;-62
2021/11/16 11:56:01;;;;;;;72.93;32.90;;;8.80;99.90;;;;;;5069051;28;20168;-62
2021/11/16 11:58:30;;;;;;;72.60;32.03;;;8.90;99.90;;;;;;5063775;28;20180;-62
2021/11/16 12:01:00;;;;;;;69.97;31.97;;;9.00;99.90;;;;;;5068839;28;20169;-63
2021/11/16 12:03:26;;;;;;;75.53;32.37;;;9.00;99.90;;;;;;5068934;28;20180;-62
2021/11/16 12:05:52;;;;;;;76.03;32.73;;;8.90;99.90;;;;;;5068476;28;20219;-62
2021/11/16 12:08:18;;;;;;;73.47;33.80;;;8.90;99.90;;;;;;5067599;28;20549;-62
2021/11/16 12:10:48;;;;;;;70.87;32.17;;;8.90;99.90;;;;;;5068725;28;20180;-62
2021/11/16 12:13:20;;;;;;;77.00;33.33;;;8.90;99.90;;;;;;5068819;28;20219;-62
2021/11/16 12:15:50;;;;;;;74.07;32.00;;;8.90;99.90;;;;;;5068714;28;20176;-62
2021/11/16 12:18:17;;;;;;;76.00;33.30;;;8.70;99.90;;;;;;5068790;28;20235;-62
2021/11/16 12:20:54;;;;;;;78.20;33.97;;;8.70;99.90;;;;;;5068104;28;20177;-65
2021/11/16 12:23:44;;;;;;;73.20;33.03;;;8.80;99.90;;;;;;5068678;28;20188;-65
2021/11/16 12:26:11;;;;;;;78.27;35.70;;;9.10;99.90;;;;;;5063393;28;20183;-65
2021/11/16 12:28:38;;;;;;;166.23;72.80;;;9.20;99.90;;;;;;5068251;28;20831;-65
2021/11/16 12:31:05;;;;;;;93.63;41.23;;;9.20;99.90;;;;;;5068340;28;20426;-65
2021/11/16 12:33:46;;;;;;;79.00;34.47;;;9.00;99.90;;;;;;5068547;28;20248;-65
2021/11/16 12:36:15;;;;;;;71.00;32.47;;;9.00;99.90;;;;;;5067898;28;20177;-65
2021/11/16 12:38:43;;;;;;;78.55;38.17;;;9.00;99.90;;;;;;5067509;28;20400;-65
2021/11/16 12:41:27;;;;;;;77.97;32.93;;;9.10;99.90;;;;;;5068152;28;20172;-65
2021/11/16 12:43:55;;;;;;;83.17;35.27;;;9.10;99.90;;;;;;5068263;28;20216;-64
2021/11/16 12:46:22;;;;;;;109.40;47.50;;;9.10;99.90;;;;;;5068406;28;20741;-65
2021/11/16 12:48:56;;;;;;;110.63;48.63;;;9.10;99.90;;;;;;5068229;28;20164;-65
2021/11/16 12:51:35;;;;;;;95.90;44.00;;;9.10;99.90;;;;;;5066657;28;20416;-65
2021/11/16 12:54:21;;;;;;;113.30;43.53;;;9.40;99.90;;;;;;5068236;28;20156;-65
2021/11/16 12:56:47;;;;;;;77.90;32.60;;;9.30;99.90;;;;;;5068111;28;20165;-65
2021/11/16 12:59:14;;;;;;;75.13;31.93;;;9.40;99.90;;;;;;5067930;28;20173;-64
2021/11/16 13:01:50;;;;;;;79.43;33.80;;;9.40;99.90;;;;;;5066621;28;20546;-65
2021/11/16 13:04:38;;;;;;;74.70;31.73;;;9.50;99.90;;;;;;5067984;28;20192;-65